sensor_id;sensor_type;location;lat;lon;timestamp;temperature;humidity
22908;DHT22;11620;50.050;8.690;2022-08-04T00:06:03;27.90;99.90
22908;DHT22;11620;50.050;8.690;2022-08-04T00:08:55;27.90;99.90
22908;DHT22;11620;50.050;8.690;2022-08-04T00:11:45;27.80;99.90
22908;DHT22;11620;50.050;8.690;2022-08-04T00:14:34;27.70;99.90
22908;DHT22;11620;50.050;8.690;2022-08-04T00:17:27;27.60;99.90
22908;DHT22;11620;50.050;8.690;2022-08-04T00:20:17;27.60;99.90
22908;DHT22;11620;50.050;8.690;2022-08-04T00:23:05;27.60;99.90
22908;DHT22;11620;50.050;8.690;2022-08-04T00:25:52;27.60;99.90
22908;DHT22;11620;50.050;8.690;2022-08-04T00:28:39;27.50;99.90
22908;DHT22;11620;50.050;8.690;2022-08-04T00:31:26;27.50;99.90
22908;DHT22;11620;50.050;8.690;2022-08-04T00:34:14;27.50;99.90
22908;DHT22;11620;50.050;8.690;2022-08-04T00:37:01;27.40;99.90
22908;DHT22;11620;50.050;8.690;2022-08-04T00:39:48;27.30;99.90
22908;DHT22;11620;50.050;8.690;2022-08-04T00:42:48;27.30;99.90
22908;DHT22;11620;50.050;8.690;2022-08-04T00:46:02;27.30;99.90
22908;DHT22;11620;50.050;8.690;2022-08-04T00:52:01;27.20;99.90
22908;DHT22;11620;50.050;8.690;2022-08-04T01:01:41;27.00;99.90
22908;DHT22;11620;50.050;8.690;2022-08-04T01:07:46;26.90;99.90
22908;DHT22;11620;50.050;8.690;2022-08-04T01:17:27;26.80;99.90
22908;DHT22;11620;50.050;8.690;2022-08-04T01:20:20;26.80;99.90
22908;DHT22;11620;50.050;8.690;2022-08-04T01:26:35;26.80;99.90
22908;DHT22;11620;50.050;8.690;2022-08-04T01:29:33;26.70;99.90
22908;DHT22;11620;50.050;8.690;2022-08-04T01:32:26;26.70;99.90
22908;DHT22;11620;50.050;8.690;2022-08-04T01:38:31;26.60;99.90
22908;DHT22;11620;50.050;8.690;2022-08-04T01:41:19;26.60;99.90
22908;DHT22;11620;50.050;8.690;2022-08-04T01:44:07;26.60;99.90
22908;DHT22;11620;50.050;8.690;2022-08-04T01:46:54;26.50;99.90
22908;DHT22;11620;50.050;8.690;2022-08-04T01:49:41;26.50;99.90
22908;DHT22;11620;50.050;8.690;2022-08-04T01:52:31;26.50;99.90
22908;DHT22;11620;50.050;8.690;2022-08-04T01:55:20;26.50;99.90
22908;DHT22;11620;50.050;8.690;2022-08-04T01:58:06;26.40;99.90
22908;DHT22;11620;50.050;8.690;2022-08-04T02:01:04;26.40;99.90
22908;DHT22;11620;50.050;8.690;2022-08-04T02:03:50;26.30;99.90
22908;DHT22;11620;50.050;8.690;2022-08-04T02:10:09;26.20;99.90
22908;DHT22;11620;50.050;8.690;2022-08-04T02:21:50;26.10;99.90
22908;DHT22;11620;50.050;8.690;2022-08-04T02:25:15;26.00;99.90
22908;DHT22;11620;50.050;8.690;2022-08-04T02:28:19;26.00;99.90
22908;DHT22;11620;50.050;8.690;2022-08-04T02:37:36;25.90;99.90
22908;DHT22;11620;50.050;8.690;2022-08-04T02:40:23;25.90;99.90
22908;DHT22;11620;50.050;8.690;2022-08-04T02:43:12;25.90;99.90
22908;DHT22;11620;50.050;8.690;2022-08-04T02:46:01;25.80;99.90
22908;DHT22;11620;50.050;8.690;2022-08-04T02:48:50;25.80;99.90
22908;DHT22;11620;50.050;8.690;2022-08-04T02:51:43;25.80;99.90
22908;DHT22;11620;50.050;8.690;2022-08-04T02:54:34;25.70;99.90
22908;DHT22;11620;50.050;8.690;2022-08-04T02:57:25;25.70;99.90
22908;DHT22;11620;50.050;8.690;2022-08-04T03:00:13;25.70;99.90
22908;DHT22;11620;50.050;8.690;2022-08-04T03:03:49;25.70;99.90
22908;DHT22;11620;50.050;8.690;2022-08-04T03:06:45;25.60;99.90
22908;DHT22;11620;50.050;8.690;2022-08-04T03:10:04;25.60;99.90
22908;DHT22;11620;50.050;8.690;2022-08-04T03:38:33;25.20;99.90
22908;DHT22;11620;50.050;8.690;2022-08-04T03:44:53;25.20;99.90
22908;DHT22;11620;50.050;8.690;2022-08-04T03:57:35;25.20;99.90
22908;DHT22;11620;50.050;8.690;2022-08-04T04:06:44;25.00;99.90
22908;DHT22;11620;50.050;8.690;2022-08-04T04:25:28;25.10;99.90
22908;DHT22;11620;50.050;8.690;2022-08-04T04:28:44;25.10;99.90
22908;DHT22;11620;50.050;8.690;2022-08-04T04:47:21;24.90;99.90
22908;DHT22;11620;50.050;8.690;2022-08-04T04:53:35;25.00;99.90
22908;DHT22;11620;50.050;8.690;2022-08-04T04:59:35;24.80;99.90
22908;DHT22;11620;50.050;8.690;2022-08-04T05:14:57;24.80;99.90
22908;DHT22;11620;50.050;8.690;2022-08-04T05:17:49;24.80;99.90
22908;DHT22;11620;50.050;8.690;2022-08-04T05:20:39;24.80;99.90
22908;DHT22;11620;50.050;8.690;2022-08-04T05:23:28;24.90;99.90
22908;DHT22;11620;50.050;8.690;2022-08-04T05:26:15;25.00;99.90
22908;DHT22;11620;50.050;8.690;2022-08-04T05:29:06;25.00;99.90
22908;DHT22;11620;50.050;8.690;2022-08-04T05:31:53;25.00;99.90
22908;DHT22;11620;50.050;8.690;2022-08-04T05:34:42;25.00;99.90
22908;DHT22;11620;50.050;8.690;2022-08-04T05:37:29;25.00;99.90
22908;DHT22;11620;50.050;8.690;2022-08-04T05:40:16;25.00;99.90
22908;DHT22;11620;50.050;8.690;2022-08-04T05:43:02;25.10;99.90
22908;DHT22;11620;50.050;8.690;2022-08-04T05:45:47;25.10;99.90
22908;DHT22;11620;50.050;8.690;2022-08-04T05:48:33;25.10;99.90
22908;DHT22;11620;50.050;8.690;2022-08-04T05:51:18;25.20;99.90
22908;DHT22;11620;50.050;8.690;2022-08-04T05:54:04;25.30;99.90
22908;DHT22;11620;50.050;8.690;2022-08-04T05:56:49;25.40;99.90
22908;DHT22;11620;50.050;8.690;2022-08-04T05:59:37;25.50;99.90
22908;DHT22;11620;50.050;8.690;2022-08-04T06:02:23;25.50;99.90
22908;DHT22;11620;50.050;8.690;2022-08-04T06:05:08;25.50;99.90
22908;DHT22;11620;50.050;8.690;2022-08-04T06:07:54;25.60;99.90
22908;DHT22;11620;50.050;8.690;2022-08-04T06:10:39;25.60;99.90
22908;DHT22;11620;50.050;8.690;2022-08-04T06:13:28;25.70;99.90
22908;DHT22;11620;50.050;8.690;2022-08-04T06:16:15;25.70;99.90
22908;DHT22;11620;50.050;8.690;2022-08-04T06:19:06;25.80;99.90
22908;DHT22;11620;50.050;8.690;2022-08-04T06:21:53;25.90;99.90
22908;DHT22;11620;50.050;8.690;2022-08-04T06:24:38;26.00;99.90
22908;DHT22;11620;50.050;8.690;2022-08-04T06:27:24;26.30;99.90
22908;DHT22;11620;50.050;8.690;2022-08-04T06:30:10;26.50;99.90
22908;DHT22;11620;50.050;8.690;2022-08-04T06:32:58;26.80;99.90
22908;DHT22;11620;50.050;8.690;2022-08-04T06:35:57;27.10;99.90
22908;DHT22;11620;50.050;8.690;2022-08-04T06:38:42;27.30;99.90
22908;DHT22;11620;50.050;8.690;2022-08-04T06:41:28;27.50;99.90
22908;DHT22;11620;50.050;8.690;2022-08-04T06:44:13;27.80;99.90
22908;DHT22;11620;50.050;8.690;2022-08-04T06:46:59;28.00;99.90
22908;DHT22;11620;50.050;8.690;2022-08-04T06:49:45;28.40;99.90
22908;DHT22;11620;50.050;8.690;2022-08-04T06:52:31;28.70;99.90
22908;DHT22;11620;50.050;8.690;2022-08-04T06:55:17;28.90;99.90
22908;DHT22;11620;50.050;8.690;2022-08-04T06:58:01;29.10;99.90
22908;DHT22;11620;50.050;8.690;2022-08-04T07:00:47;29.30;99.90
22908;DHT22;11620;50.050;8.690;2022-08-04T07:03:33;29.40;99.90
22908;DHT22;11620;50.050;8.690;2022-08-04T07:06:20;29.60;99.90
22908;DHT22;11620;50.050;8.690;2022-08-04T07:09:06;29.70;99.90
22908;DHT22;11620;50.050;8.690;2022-08-04T07:11:51;29.90;99.90
22908;DHT22;11620;50.050;8.690;2022-08-04T07:14:38;30.20;99.90
22908;DHT22;11620;50.050;8.690;2022-08-04T07:17:24;30.40;99.90
22908;DHT22;11620;50.050;8.690;2022-08-04T07:20:10;30.80;99.90
22908;DHT22;11620;50.050;8.690;2022-08-04T07:22:54;31.10;99.90
22908;DHT22;11620;50.050;8.690;2022-08-04T07:25:40;31.40;99.90
22908;DHT22;11620;50.050;8.690;2022-08-04T07:28:29;31.60;99.90
22908;DHT22;11620;50.050;8.690;2022-08-04T07:31:18;31.40;99.90
22908;DHT22;11620;50.050;8.690;2022-08-04T07:34:03;31.60;99.90
22908;DHT22;11620;50.050;8.690;2022-08-04T07:36:50;31.80;99.90
22908;DHT22;11620;50.050;8.690;2022-08-04T07:39:36;32.00;99.90
22908;DHT22;11620;50.050;8.690;2022-08-04T07:42:20;32.30;99.90
22908;DHT22;11620;50.050;8.690;2022-08-04T07:45:06;32.50;99.90
22908;DHT22;11620;50.050;8.690;2022-08-04T07:47:51;32.80;99.90
22908;DHT22;11620;50.050;8.690;2022-08-04T07:50:37;33.00;99.90
22908;DHT22;11620;50.050;8.690;2022-08-04T07:53:25;33.30;99.90
22908;DHT22;11620;50.050;8.690;2022-08-04T07:56:11;33.60;99.90
22908;DHT22;11620;50.050;8.690;2022-08-04T07:58:57;33.80;99.90
22908;DHT22;11620;50.050;8.690;2022-08-04T08:01:43;34.00;99.90
22908;DHT22;11620;50.050;8.690;2022-08-04T08:04:28;34.20;99.90
22908;DHT22;11620;50.050;8.690;2022-08-04T08:07:13;34.30;99.50
22908;DHT22;11620;50.050;8.690;2022-08-04T08:09:57;34.50;99.30
22908;DHT22;11620;50.050;8.690;2022-08-04T08:12:42;34.60;99.30
22908;DHT22;11620;50.050;8.690;2022-08-04T08:15:27;34.80;99.40
22908;DHT22;11620;50.050;8.690;2022-08-04T08:18:12;35.20;97.60
22908;DHT22;11620;50.050;8.690;2022-08-04T08:20:57;35.40;97.30
22908;DHT22;11620;50.050;8.690;2022-08-04T08:23:41;35.70;96.80
22908;DHT22;11620;50.050;8.690;2022-08-04T08:26:26;35.80;95.60
22908;DHT22;11620;50.050;8.690;2022-08-04T08:29:11;35.80;96.00
22908;DHT22;11620;50.050;8.690;2022-08-04T08:31:56;35.20;94.30
22908;DHT22;11620;50.050;8.690;2022-08-04T08:34:41;35.50;94.40
22908;DHT22;11620;50.050;8.690;2022-08-04T08:37:36;35.40;96.70
22908;DHT22;11620;50.050;8.690;2022-08-04T08:49:37;34.90;94.30
22908;DHT22;11620;50.050;8.690;2022-08-04T08:55:48;35.70;93.90
22908;DHT22;11620;50.050;8.690;2022-08-04T09:09:00;36.40;94.50
22908;DHT22;11620;50.050;8.690;2022-08-04T09:12:20;36.60;92.80
22908;DHT22;11620;50.050;8.690;2022-08-04T09:15:16;36.50;93.50
22908;DHT22;11620;50.050;8.690;2022-08-04T09:18:40;36.50;92.70
22908;DHT22;11620;50.050;8.690;2022-08-04T09:21:36;37.10;93.90
22908;DHT22;11620;50.050;8.690;2022-08-04T09:27:34;38.10;92.60
22908;DHT22;11620;50.050;8.690;2022-08-04T09:36:33;37.50;92.60
22908;DHT22;11620;50.050;8.690;2022-08-04T09:39:25;37.70;92.60
22908;DHT22;11620;50.050;8.690;2022-08-04T09:45:37;37.20;92.40
22908;DHT22;11620;50.050;8.690;2022-08-04T10:01:09;36.90;92.00
22908;DHT22;11620;50.050;8.690;2022-08-04T10:03:59;37.20;92.40
22908;DHT22;11620;50.050;8.690;2022-08-04T10:10:34;36.80;92.10
22908;DHT22;11620;50.050;8.690;2022-08-04T10:16:23;37.70;91.40
22908;DHT22;11620;50.050;8.690;2022-08-04T10:22:18;38.10;91.30
22908;DHT22;11620;50.050;8.690;2022-08-04T10:28:16;38.80;90.60
22908;DHT22;11620;50.050;8.690;2022-08-04T10:31:07;39.10;91.40
22908;DHT22;11620;50.050;8.690;2022-08-04T10:36:56;39.60;90.50
22908;DHT22;11620;50.050;8.690;2022-08-04T10:43:04;39.90;90.40
22908;DHT22;11620;50.050;8.690;2022-08-04T10:46:02;40.20;89.80
22908;DHT22;11620;50.050;8.690;2022-08-04T10:49:06;40.40;88.90
22908;DHT22;11620;50.050;8.690;2022-08-04T10:52:04;39.60;89.40
22908;DHT22;11620;50.050;8.690;2022-08-04T10:54:57;39.50;89.20
22908;DHT22;11620;50.050;8.690;2022-08-04T10:57:50;39.90;90.30
22908;DHT22;11620;50.050;8.690;2022-08-04T11:00:38;39.70;90.70
22908;DHT22;11620;50.050;8.690;2022-08-04T11:03:41;39.80;90.00
22908;DHT22;11620;50.050;8.690;2022-08-04T11:06:29;40.50;90.10
22908;DHT22;11620;50.050;8.690;2022-08-04T11:09:16;40.90;89.80
22908;DHT22;11620;50.050;8.690;2022-08-04T11:12:23;41.10;87.60
22908;DHT22;11620;50.050;8.690;2022-08-04T11:15:24;41.40;89.30
22908;DHT22;11620;50.050;8.690;2022-08-04T11:18:15;41.40;87.30
22908;DHT22;11620;50.050;8.690;2022-08-04T11:21:24;40.90;85.60
22908;DHT22;11620;50.050;8.690;2022-08-04T11:24:21;40.70;86.60
22908;DHT22;11620;50.050;8.690;2022-08-04T11:27:18;40.40;87.70
22908;DHT22;11620;50.050;8.690;2022-08-04T11:30:08;40.90;86.80
22908;DHT22;11620;50.050;8.690;2022-08-04T11:33:22;40.80;85.40
22908;DHT22;11620;50.050;8.690;2022-08-04T11:36:26;41.20;85.40
22908;DHT22;11620;50.050;8.690;2022-08-04T11:39:36;41.50;85.70
22908;DHT22;11620;50.050;8.690;2022-08-04T11:42:36;42.00;85.70
22908;DHT22;11620;50.050;8.690;2022-08-04T11:45:33;42.30;83.00
22908;DHT22;11620;50.050;8.690;2022-08-04T11:48:31;42.10;82.60
22908;DHT22;11620;50.050;8.690;2022-08-04T11:51:20;42.40;82.70
22908;DHT22;11620;50.050;8.690;2022-08-04T11:54:05;42.70;80.80
22908;DHT22;11620;50.050;8.690;2022-08-04T11:56:50;42.80;80.50
22908;DHT22;11620;50.050;8.690;2022-08-04T11:59:36;43.00;80.00
22908;DHT22;11620;50.050;8.690;2022-08-04T12:02:41;43.00;79.50
22908;DHT22;11620;50.050;8.690;2022-08-04T12:05:39;43.00;78.60
22908;DHT22;11620;50.050;8.690;2022-08-04T12:17:37;43.20;79.10
22908;DHT22;11620;50.050;8.690;2022-08-04T12:20:24;42.40;78.30
22908;DHT22;11620;50.050;8.690;2022-08-04T12:23:23;41.70;76.20
22908;DHT22;11620;50.050;8.690;2022-08-04T12:26:22;41.30;77.10
22908;DHT22;11620;50.050;8.690;2022-08-04T12:29:10;41.10;77.10
22908;DHT22;11620;50.050;8.690;2022-08-04T12:38:06;40.70;76.90
22908;DHT22;11620;50.050;8.690;2022-08-04T12:40:54;40.80;74.80
22908;DHT22;11620;50.050;8.690;2022-08-04T12:43:44;40.90;76.50
22908;DHT22;11620;50.050;8.690;2022-08-04T12:46:31;41.10;74.50
22908;DHT22;11620;50.050;8.690;2022-08-04T12:49:16;40.50;76.40
22908;DHT22;11620;50.050;8.690;2022-08-04T12:52:07;40.50;76.80
22908;DHT22;11620;50.050;8.690;2022-08-04T12:54:53;40.20;74.20
22908;DHT22;11620;50.050;8.690;2022-08-04T12:57:40;39.50;73.10
22908;DHT22;11620;50.050;8.690;2022-08-04T13:00:34;39.00;73.60
22908;DHT22;11620;50.050;8.690;2022-08-04T13:03:20;39.00;74.50
22908;DHT22;11620;50.050;8.690;2022-08-04T13:06:10;39.20;73.60
22908;DHT22;11620;50.050;8.690;2022-08-04T13:09:27;39.10;73.40
22908;DHT22;11620;50.050;8.690;2022-08-04T13:12:15;39.10;73.10
22908;DHT22;11620;50.050;8.690;2022-08-04T13:15:11;39.30;74.20
22908;DHT22;11620;50.050;8.690;2022-08-04T13:18:04;40.00;74.60
22908;DHT22;11620;50.050;8.690;2022-08-04T13:20:49;40.20;75.80
22908;DHT22;11620;50.050;8.690;2022-08-04T13:23:33;40.40;75.10
22908;DHT22;11620;50.050;8.690;2022-08-04T13:26:19;41.10;77.60
22908;DHT22;11620;50.050;8.690;2022-08-04T13:29:06;41.40;74.20
22908;DHT22;11620;50.050;8.690;2022-08-04T13:31:54;41.70;74.70
22908;DHT22;11620;50.050;8.690;2022-08-04T13:34:40;41.30;75.00
22908;DHT22;11620;50.050;8.690;2022-08-04T13:37:32;40.80;74.70
22908;DHT22;11620;50.050;8.690;2022-08-04T13:40:21;41.00;76.80
22908;DHT22;11620;50.050;8.690;2022-08-04T13:43:07;41.20;75.10
22908;DHT22;11620;50.050;8.690;2022-08-04T13:45:59;41.10;74.60
22908;DHT22;11620;50.050;8.690;2022-08-04T13:48:45;41.10;74.20
22908;DHT22;11620;50.050;8.690;2022-08-04T13:51:31;40.40;74.80
22908;DHT22;11620;50.050;8.690;2022-08-04T13:54:16;40.30;75.50
22908;DHT22;11620;50.050;8.690;2022-08-04T13:57:07;40.50;77.40
22908;DHT22;11620;50.050;8.690;2022-08-04T13:59:59;40.60;74.00
22908;DHT22;11620;50.050;8.690;2022-08-04T14:03:06;40.50;74.30
22908;DHT22;11620;50.050;8.690;2022-08-04T14:06:14;40.60;76.20
22908;DHT22;11620;50.050;8.690;2022-08-04T14:09:12;40.10;74.30
22908;DHT22;11620;50.050;8.690;2022-08-04T14:12:13;40.00;76.50
22908;DHT22;11620;50.050;8.690;2022-08-04T14:15:00;40.10;78.50
22908;DHT22;11620;50.050;8.690;2022-08-04T14:17:44;40.30;77.10
22908;DHT22;11620;50.050;8.690;2022-08-04T14:20:29;40.20;79.60
22908;DHT22;11620;50.050;8.690;2022-08-04T14:23:13;40.10;76.60
22908;DHT22;11620;50.050;8.690;2022-08-04T14:25:57;40.10;76.20
22908;DHT22;11620;50.050;8.690;2022-08-04T14:28:42;40.20;76.70
22908;DHT22;11620;50.050;8.690;2022-08-04T14:31:27;40.30;76.00
22908;DHT22;11620;50.050;8.690;2022-08-04T14:34:27;40.30;76.40
22908;DHT22;11620;50.050;8.690;2022-08-04T14:37:16;40.50;76.60
22908;DHT22;11620;50.050;8.690;2022-08-04T14:40:03;40.20;75.60
22908;DHT22;11620;50.050;8.690;2022-08-04T14:42:49;40.20;76.80
22908;DHT22;11620;50.050;8.690;2022-08-04T14:45:41;40.00;75.80
22908;DHT22;11620;50.050;8.690;2022-08-04T14:48:28;40.20;76.90
22908;DHT22;11620;50.050;8.690;2022-08-04T14:51:14;39.80;76.40
22908;DHT22;11620;50.050;8.690;2022-08-04T14:54:01;40.00;76.40
22908;DHT22;11620;50.050;8.690;2022-08-04T14:56:53;40.00;78.10
22908;DHT22;11620;50.050;8.690;2022-08-04T14:59:44;40.10;77.40
22908;DHT22;11620;50.050;8.690;2022-08-04T15:02:31;40.20;76.10
22908;DHT22;11620;50.050;8.690;2022-08-04T15:05:20;39.90;77.00
22908;DHT22;11620;50.050;8.690;2022-08-04T15:08:08;39.70;76.40
22908;DHT22;11620;50.050;8.690;2022-08-04T15:10:56;39.50;77.00
22908;DHT22;11620;50.050;8.690;2022-08-04T15:13:43;39.40;78.00
22908;DHT22;11620;50.050;8.690;2022-08-04T15:16:31;39.20;77.80
22908;DHT22;11620;50.050;8.690;2022-08-04T15:19:18;38.90;77.10
22908;DHT22;11620;50.050;8.690;2022-08-04T15:22:05;38.80;77.10
22908;DHT22;11620;50.050;8.690;2022-08-04T15:24:52;39.10;76.80
22908;DHT22;11620;50.050;8.690;2022-08-04T15:27:39;39.50;77.40
22908;DHT22;11620;50.050;8.690;2022-08-04T15:30:26;39.40;76.60
22908;DHT22;11620;50.050;8.690;2022-08-04T15:33:16;39.20;76.80
22908;DHT22;11620;50.050;8.690;2022-08-04T15:36:21;38.90;76.20
22908;DHT22;11620;50.050;8.690;2022-08-04T15:45:21;39.00;75.90
22908;DHT22;11620;50.050;8.690;2022-08-04T15:48:22;38.90;76.20
22908;DHT22;11620;50.050;8.690;2022-08-04T15:51:11;39.10;75.70
22908;DHT22;11620;50.050;8.690;2022-08-04T15:56:46;39.40;75.00
22908;DHT22;11620;50.050;8.690;2022-08-04T16:02:41;38.90;75.80
22908;DHT22;11620;50.050;8.690;2022-08-04T16:05:28;39.00;76.10
22908;DHT22;11620;50.050;8.690;2022-08-04T16:08:16;39.10;76.10
22908;DHT22;11620;50.050;8.690;2022-08-04T16:11:03;39.20;78.30
22908;DHT22;11620;50.050;8.690;2022-08-04T16:14:16;39.10;77.20
22908;DHT22;11620;50.050;8.690;2022-08-04T16:17:15;39.10;76.50
22908;DHT22;11620;50.050;8.690;2022-08-04T16:20:07;39.10;75.70
22908;DHT22;11620;50.050;8.690;2022-08-04T16:22:56;38.70;76.40
22908;DHT22;11620;50.050;8.690;2022-08-04T16:25:46;38.50;76.80
22908;DHT22;11620;50.050;8.690;2022-08-04T16:28:38;38.30;75.60
22908;DHT22;11620;50.050;8.690;2022-08-04T16:31:26;38.20;75.40
22908;DHT22;11620;50.050;8.690;2022-08-04T16:34:12;38.20;76.70
22908;DHT22;11620;50.050;8.690;2022-08-04T16:37:05;38.10;76.80
22908;DHT22;11620;50.050;8.690;2022-08-04T16:40:25;37.90;76.60
22908;DHT22;11620;50.050;8.690;2022-08-04T16:43:15;37.80;77.10
22908;DHT22;11620;50.050;8.690;2022-08-04T16:46:02;37.90;77.10
22908;DHT22;11620;50.050;8.690;2022-08-04T16:49:05;38.20;78.30
22908;DHT22;11620;50.050;8.690;2022-08-04T16:51:52;38.10;76.00
22908;DHT22;11620;50.050;8.690;2022-08-04T16:54:38;37.90;76.60
22908;DHT22;11620;50.050;8.690;2022-08-04T16:57:25;37.70;76.60
22908;DHT22;11620;50.050;8.690;2022-08-04T17:00:11;37.80;77.00
22908;DHT22;11620;50.050;8.690;2022-08-04T17:03:04;37.80;76.90
22908;DHT22;11620;50.050;8.690;2022-08-04T17:06:04;37.60;76.80
22908;DHT22;11620;50.050;8.690;2022-08-04T17:08:51;37.80;77.10
22908;DHT22;11620;50.050;8.690;2022-08-04T17:11:39;37.90;77.30
22908;DHT22;11620;50.050;8.690;2022-08-04T17:14:28;37.90;77.20
22908;DHT22;11620;50.050;8.690;2022-08-04T17:17:14;37.90;77.40
22908;DHT22;11620;50.050;8.690;2022-08-04T17:20:08;37.80;77.80
22908;DHT22;11620;50.050;8.690;2022-08-04T17:22:56;37.60;77.60
22908;DHT22;11620;50.050;8.690;2022-08-04T17:26:06;37.50;77.80
22908;DHT22;11620;50.050;8.690;2022-08-04T17:28:54;37.40;77.80
22908;DHT22;11620;50.050;8.690;2022-08-04T17:31:40;37.30;79.20
22908;DHT22;11620;50.050;8.690;2022-08-04T17:34:27;37.30;78.60
22908;DHT22;11620;50.050;8.690;2022-08-04T17:37:13;37.30;78.70
22908;DHT22;11620;50.050;8.690;2022-08-04T17:40:08;37.20;79.50
22908;DHT22;11620;50.050;8.690;2022-08-04T17:43:05;37.30;78.90
22908;DHT22;11620;50.050;8.690;2022-08-04T17:46:18;37.20;78.80
22908;DHT22;11620;50.050;8.690;2022-08-04T17:51:55;37.00;79.30
22908;DHT22;11620;50.050;8.690;2022-08-04T17:54:42;37.00;79.40
22908;DHT22;11620;50.050;8.690;2022-08-04T17:57:28;37.10;79.70
22908;DHT22;11620;50.050;8.690;2022-08-04T18:00:15;37.00;80.00
22908;DHT22;11620;50.050;8.690;2022-08-04T18:03:01;37.00;80.70
22908;DHT22;11620;50.050;8.690;2022-08-04T18:05:48;37.00;80.20
22908;DHT22;11620;50.050;8.690;2022-08-04T18:08:35;36.80;80.20
22908;DHT22;11620;50.050;8.690;2022-08-04T18:11:21;36.70;80.20
22908;DHT22;11620;50.050;8.690;2022-08-04T18:14:08;36.70;80.10
22908;DHT22;11620;50.050;8.690;2022-08-04T18:16:55;36.70;80.40
22908;DHT22;11620;50.050;8.690;2022-08-04T18:19:51;36.70;80.10
22908;DHT22;11620;50.050;8.690;2022-08-04T18:22:37;36.70;80.20
22908;DHT22;11620;50.050;8.690;2022-08-04T18:25:26;36.70;81.10
22908;DHT22;11620;50.050;8.690;2022-08-04T18:28:13;36.50;80.00
22908;DHT22;11620;50.050;8.690;2022-08-04T18:31:00;36.50;80.90
22908;DHT22;11620;50.050;8.690;2022-08-04T18:33:47;36.50;82.50
22908;DHT22;11620;50.050;8.690;2022-08-04T18:36:35;36.50;83.10
22908;DHT22;11620;50.050;8.690;2022-08-04T18:39:21;36.50;83.30
22908;DHT22;11620;50.050;8.690;2022-08-04T18:42:10;36.40;83.00
22908;DHT22;11620;50.050;8.690;2022-08-04T18:44:57;36.30;83.60
22908;DHT22;11620;50.050;8.690;2022-08-04T18:47:43;36.20;83.80
22908;DHT22;11620;50.050;8.690;2022-08-04T18:50:30;36.20;83.00
22908;DHT22;11620;50.050;8.690;2022-08-04T18:53:16;36.10;84.10
22908;DHT22;11620;50.050;8.690;2022-08-04T18:56:03;36.00;84.10
22908;DHT22;11620;50.050;8.690;2022-08-04T18:58:50;35.90;84.20
22908;DHT22;11620;50.050;8.690;2022-08-04T19:01:36;35.80;84.30
22908;DHT22;11620;50.050;8.690;2022-08-04T19:04:23;35.80;83.70
22908;DHT22;11620;50.050;8.690;2022-08-04T19:07:10;35.70;85.50
22908;DHT22;11620;50.050;8.690;2022-08-04T19:09:59;35.60;85.60
22908;DHT22;11620;50.050;8.690;2022-08-04T19:12:45;35.50;84.40
22908;DHT22;11620;50.050;8.690;2022-08-04T19:15:32;35.40;84.70
22908;DHT22;11620;50.050;8.690;2022-08-04T19:18:18;35.50;85.10
22908;DHT22;11620;50.050;8.690;2022-08-04T19:21:04;35.50;86.00
22908;DHT22;11620;50.050;8.690;2022-08-04T19:23:51;35.40;87.70
22908;DHT22;11620;50.050;8.690;2022-08-04T19:26:37;35.40;88.30
22908;DHT22;11620;50.050;8.690;2022-08-04T19:29:24;35.30;87.60
22908;DHT22;11620;50.050;8.690;2022-08-04T19:32:11;35.20;88.60
22908;DHT22;11620;50.050;8.690;2022-08-04T19:34:58;35.10;88.40
22908;DHT22;11620;50.050;8.690;2022-08-04T19:37:45;35.10;89.30
22908;DHT22;11620;50.050;8.690;2022-08-04T19:40:31;34.90;88.00
22908;DHT22;11620;50.050;8.690;2022-08-04T19:43:18;34.90;90.20
22908;DHT22;11620;50.050;8.690;2022-08-04T19:46:06;34.80;88.70
22908;DHT22;11620;50.050;8.690;2022-08-04T19:48:52;34.80;90.60
22908;DHT22;11620;50.050;8.690;2022-08-04T19:51:39;34.60;90.50
22908;DHT22;11620;50.050;8.690;2022-08-04T19:54:25;34.60;90.90
22908;DHT22;11620;50.050;8.690;2022-08-04T19:57:11;34.50;90.60
22908;DHT22;11620;50.050;8.690;2022-08-04T19:59:58;34.40;90.80
22908;DHT22;11620;50.050;8.690;2022-08-04T20:02:45;34.40;90.80
22908;DHT22;11620;50.050;8.690;2022-08-04T20:05:31;34.30;90.40
22908;DHT22;11620;50.050;8.690;2022-08-04T20:08:18;34.20;90.40
22908;DHT22;11620;50.050;8.690;2022-08-04T20:11:04;34.20;90.30
22908;DHT22;11620;50.050;8.690;2022-08-04T20:13:50;34.20;91.00
22908;DHT22;11620;50.050;8.690;2022-08-04T20:16:37;34.10;90.60
22908;DHT22;11620;50.050;8.690;2022-08-04T20:19:23;34.10;90.50
22908;DHT22;11620;50.050;8.690;2022-08-04T20:22:10;34.00;91.20
22908;DHT22;11620;50.050;8.690;2022-08-04T20:24:58;33.90;90.40
22908;DHT22;11620;50.050;8.690;2022-08-04T20:27:44;33.80;89.30
22908;DHT22;11620;50.050;8.690;2022-08-04T20:30:31;33.80;90.10
22908;DHT22;11620;50.050;8.690;2022-08-04T20:33:19;33.70;90.10
22908;DHT22;11620;50.050;8.690;2022-08-04T20:36:06;33.70;90.20
22908;DHT22;11620;50.050;8.690;2022-08-04T20:38:52;33.60;90.20
22908;DHT22;11620;50.050;8.690;2022-08-04T20:41:39;33.50;90.40
22908;DHT22;11620;50.050;8.690;2022-08-04T20:44:25;33.50;90.30
22908;DHT22;11620;50.050;8.690;2022-08-04T20:47:12;33.40;90.50
22908;DHT22;11620;50.050;8.690;2022-08-04T20:49:58;33.30;90.50
22908;DHT22;11620;50.050;8.690;2022-08-04T20:52:45;33.40;90.50
22908;DHT22;11620;50.050;8.690;2022-08-04T20:55:32;33.30;90.50
22908;DHT22;11620;50.050;8.690;2022-08-04T20:58:19;33.30;90.60
22908;DHT22;11620;50.050;8.690;2022-08-04T21:01:05;33.30;90.60
22908;DHT22;11620;50.050;8.690;2022-08-04T21:03:52;33.20;90.60
22908;DHT22;11620;50.050;8.690;2022-08-04T21:06:59;33.20;90.60
22908;DHT22;11620;50.050;8.690;2022-08-04T21:09:45;33.10;90.80
22908;DHT22;11620;50.050;8.690;2022-08-04T21:12:33;33.00;91.10
22908;DHT22;11620;50.050;8.690;2022-08-04T21:15:19;32.90;91.20
22908;DHT22;11620;50.050;8.690;2022-08-04T21:18:09;32.80;91.50
22908;DHT22;11620;50.050;8.690;2022-08-04T21:20:55;32.80;91.80
22908;DHT22;11620;50.050;8.690;2022-08-04T21:23:42;32.70;91.90
22908;DHT22;11620;50.050;8.690;2022-08-04T21:26:28;32.70;91.90
22908;DHT22;11620;50.050;8.690;2022-08-04T21:29:15;32.70;92.00
22908;DHT22;11620;50.050;8.690;2022-08-04T21:32:05;32.60;92.10
22908;DHT22;11620;50.050;8.690;2022-08-04T21:34:52;32.60;92.10
22908;DHT22;11620;50.050;8.690;2022-08-04T21:37:38;32.60;92.50
22908;DHT22;11620;50.050;8.690;2022-08-04T21:40:28;32.60;92.60
22908;DHT22;11620;50.050;8.690;2022-08-04T21:43:17;32.50;93.00
22908;DHT22;11620;50.050;8.690;2022-08-04T21:46:03;32.50;93.00
22908;DHT22;11620;50.050;8.690;2022-08-04T21:48:50;32.30;93.20
22908;DHT22;11620;50.050;8.690;2022-08-04T21:51:37;32.20;93.30
22908;DHT22;11620;50.050;8.690;2022-08-04T21:54:23;32.30;93.50
22908;DHT22;11620;50.050;8.690;2022-08-04T21:57:10;32.30;93.60